createdAt,value
2019-04-11T00:02:24.752Z,51.33
2019-04-11T00:04:52.898Z,51.69
2019-04-11T00:07:20.677Z,52.05
2019-04-11T00:09:49.315Z,51.68
2019-04-11T00:12:18.520Z,52.04
2019-04-11T00:14:46.922Z,52.37
2019-04-11T00:17:15.623Z,52.46
2019-04-11T00:19:43.367Z,52.53
2019-04-11T00:22:11.162Z,52.43
2019-04-11T00:24:38.897Z,52.49
2019-04-11T00:27:06.704Z,52.58
2019-04-11T00:29:34.535Z,52.55
2019-04-11T00:32:04.912Z,52.63
2019-04-11T00:34:33.056Z,52.93
2019-04-11T00:37:01.034Z,53.12
2019-04-11T00:39:29.825Z,53.23
2019-04-11T00:41:58.627Z,53.18
2019-04-11T00:44:27.219Z,53.51
2019-04-11T00:46:54.989Z,53.41
2019-04-11T00:49:22.721Z,53.63
2019-04-11T00:51:50.562Z,53.57
2019-04-11T00:54:18.505Z,53.70
2019-04-11T00:56:46.360Z,53.39
2019-04-11T00:59:14.199Z,53.25
2019-04-11T01:01:42.999Z,53.61
2019-04-11T01:04:11.680Z,53.50
2019-04-11T01:06:40.519Z,54.08
2019-04-11T01:09:09.593Z,53.94
2019-04-11T01:11:39.003Z,54.27
2019-04-11T01:14:07.760Z,54.14
2019-04-11T01:16:55.305Z,54.87
2019-04-11T01:19:24.764Z,55.26
2019-04-11T01:21:52.911Z,55.08
2019-04-11T01:24:21.834Z,55.41
2019-04-11T01:26:49.816Z,55.49
2019-04-11T01:29:17.672Z,55.49
2019-04-11T01:31:47.988Z,55.52
2019-04-11T01:34:16.211Z,55.43
2019-04-11T01:36:45.076Z,55.47
2019-04-11T01:39:25.375Z,55.19
2019-04-11T01:41:55.152Z,55.04
2019-04-11T01:44:22.984Z,55.64
2019-04-11T01:46:50.851Z,55.80
2019-04-11T01:49:20.438Z,55.47
2019-04-11T01:51:49.729Z,55.29
2019-04-11T01:54:17.520Z,55.49
2019-04-11T01:56:45.430Z,55.65
2019-04-11T01:59:13.260Z,55.70
2019-04-11T02:02:07.483Z,55.32
2019-04-11T02:04:41.030Z,55.63
2019-04-11T02:07:10.205Z,55.89
2019-04-11T02:09:38.097Z,56.10
2019-04-11T02:12:05.982Z,56.27
2019-04-11T02:14:33.711Z,56.32
2019-04-11T02:17:02.228Z,56.89
2019-04-11T02:19:30.088Z,57.25
2019-04-11T02:22:13.842Z,57.43
2019-04-11T02:24:50.355Z,58.00
2019-04-11T02:27:21.118Z,57.83
2019-04-11T02:29:48.971Z,57.88
2019-04-11T02:32:18.424Z,58.24
2019-04-11T02:34:48.681Z,58.63
2019-04-11T02:37:17.637Z,58.81
2019-04-11T02:39:47.129Z,58.87
2019-04-11T02:42:15.048Z,59.18
2019-04-11T02:44:59.731Z,58.96
2019-04-11T02:47:18.182Z,59.13
2019-04-11T02:49:43.657Z,59.14
2019-04-11T02:52:13.366Z,59.08
2019-04-11T02:54:42.956Z,59.02
2019-04-11T02:57:12.098Z,59.35
2019-04-11T02:59:40.977Z,59.40
2019-04-11T03:02:11.076Z,59.69
2019-04-11T03:04:39.383Z,60.07
2019-04-11T03:07:08.034Z,60.16
2019-04-11T03:09:37.483Z,60.34
2019-04-11T03:12:05.702Z,60.61
2019-04-11T03:14:54.061Z,60.37
2019-04-11T03:17:14.022Z,60.71
2019-04-11T03:19:49.510Z,60.51
2019-04-11T03:22:05.585Z,60.49
2019-04-11T03:24:35.778Z,60.86
2019-04-11T03:27:04.911Z,60.83
2019-04-11T03:29:35.483Z,61.10
2019-04-11T03:32:44.723Z,61.26
2019-04-11T03:39:56.842Z,61.46
2019-04-11T03:42:18.664Z,61.51
2019-04-11T03:44:39.445Z,61.82
2019-04-11T03:47:16.643Z,61.58
2019-04-11T03:49:43.339Z,61.10
2019-04-11T03:52:03.502Z,61.20
2019-04-11T03:54:31.894Z,61.59
2019-04-11T03:57:01.240Z,61.47
2019-04-11T03:59:31.255Z,61.54
2019-04-11T04:02:00.029Z,61.12
2019-04-11T04:04:29.017Z,61.18
2019-04-11T04:06:58.263Z,61.31
2019-04-11T04:09:28.403Z,61.83
2019-04-11T04:11:56.961Z,62.04
2019-04-11T04:14:42.858Z,61.98
2019-04-11T04:17:30.732Z,61.96
2019-04-11T04:20:06.859Z,62.00
2019-04-11T04:22:57.807Z,62.18
2019-04-11T04:25:26.203Z,62.03
2019-04-11T04:27:54.614Z,62.05
2019-04-11T04:30:24.774Z,62.06
2019-04-11T04:32:54.448Z,62.07
2019-04-11T04:35:24.121Z,62.05
2019-04-11T04:37:52.154Z,61.92
2019-04-11T04:40:35.566Z,62.29
2019-04-11T04:42:54.479Z,61.87
2019-04-11T04:45:21.448Z,62.39
2019-04-11T04:47:57.028Z,61.97
2019-04-11T04:50:20.046Z,61.84
2019-04-11T04:52:49.119Z,61.95
2019-04-11T04:55:17.455Z,61.68
2019-04-11T04:57:46.757Z,61.72
2019-04-11T05:00:15.112Z,62.19
2019-04-11T05:02:44.127Z,62.03
2019-04-11T05:05:13.647Z,61.73
2019-04-11T05:07:44.083Z,61.98
2019-04-11T05:10:13.300Z,62.14
2019-04-11T05:12:41.766Z,61.49
2019-04-11T05:15:10.182Z,61.29
2019-04-11T05:17:38.647Z,61.12
2019-04-11T05:20:07.462Z,61.33
2019-04-11T05:22:35.275Z,60.66
2019-04-11T05:25:03.844Z,60.97
2019-04-11T05:27:33.555Z,60.83
2019-04-11T05:30:01.334Z,60.56
2019-04-11T05:32:29.230Z,60.04
2019-04-11T05:34:56.977Z,60.14
2019-04-11T05:37:24.958Z,60.09
2019-04-11T05:39:52.768Z,59.06
2019-04-11T05:42:24.098Z,59.09
2019-04-11T05:44:51.450Z,58.59
2019-04-11T05:47:19.981Z,58.42
2019-04-11T05:50:10.028Z,58.75
2019-04-11T05:52:37.068Z,58.85
2019-04-11T05:55:09.604Z,58.42
2019-04-11T05:57:40.424Z,58.69
2019-04-11T06:00:15.838Z,58.21
2019-04-11T06:02:47.217Z,56.65
2019-04-11T06:05:37.911Z,55.22
2019-04-11T06:08:09.839Z,55.05
2019-04-11T06:10:45.124Z,55.53
2019-04-11T06:13:27.212Z,55.39
2019-04-11T06:15:59.420Z,55.66
2019-04-11T06:18:45.811Z,56.13
2019-04-11T06:21:29.109Z,56.12
2019-04-11T06:24:16.301Z,56.24
2019-04-11T06:26:58.955Z,56.69
2019-04-11T06:29:32.731Z,56.73
2019-04-11T06:32:21.474Z,56.36
2019-04-11T06:34:57.797Z,55.23
2019-04-11T06:37:57.008Z,54.81
2019-04-11T06:40:29.569Z,55.64
2019-04-11T06:43:07.809Z,55.49
2019-04-11T06:45:57.790Z,55.53
2019-04-11T06:48:40.055Z,55.40
2019-04-11T06:51:18.063Z,54.78
2019-04-11T06:53:50.443Z,53.93
2019-04-11T06:56:37.282Z,54.28
2019-04-11T06:59:10.104Z,54.05
2019-04-11T07:01:40.516Z,53.97
2019-04-11T07:04:29.712Z,53.65
2019-04-11T07:06:57.656Z,53.45
2019-04-11T07:09:50.821Z,53.63
2019-04-11T07:12:28.626Z,53.11
2019-04-11T07:15:06.875Z,53.00
2019-04-11T07:17:52.654Z,52.54
2019-04-11T07:20:38.120Z,51.83
2019-04-11T07:23:24.365Z,51.83
2019-04-11T07:26:12.483Z,51.42
2019-04-11T07:28:56.581Z,51.55
2019-04-11T07:31:44.361Z,50.40
2019-04-11T07:34:36.242Z,50.34
2019-04-11T07:37:30.296Z,49.85
2019-04-11T07:40:24.146Z,48.30
2019-04-11T07:43:18.476Z,45.88
2019-04-11T07:46:24.590Z,41.50
2019-04-11T07:48:55.098Z,35.73
2019-04-11T07:51:27.697Z,30.55
2019-04-11T07:53:56.865Z,28.36
2019-04-11T07:56:52.889Z,23.96
2019-04-11T07:59:39.704Z,22.09
2019-04-11T08:02:31.157Z,20.01
2019-04-11T08:05:24.685Z,18.43
2019-04-11T08:08:08.244Z,17.25
2019-04-11T08:10:50.568Z,16.22
2019-04-11T08:13:23.389Z,15.48
2019-04-11T08:16:09.115Z,15.39
2019-04-11T08:19:03.609Z,14.90
2019-04-11T08:21:52.988Z,14.60
2019-04-11T08:24:28.497Z,14.45
2019-04-11T08:27:15.526Z,14.58
2019-04-11T08:29:44.372Z,14.07
2019-04-11T08:32:30.280Z,13.03
2019-04-11T08:35:24.056Z,12.85
2019-04-11T08:38:02.376Z,12.98
2019-04-11T08:40:33.712Z,14.08
2019-04-11T08:43:06.676Z,14.42
2019-04-11T08:45:36.300Z,15.18
2019-04-11T08:48:05.487Z,17.60
2019-04-11T08:50:36.650Z,15.64
2019-04-11T08:53:22.554Z,16.64
2019-04-11T08:55:57.063Z,16.68
2019-04-11T08:58:28.828Z,16.55
2019-04-11T09:01:00.493Z,15.14
2019-04-11T09:04:09.180Z,14.99
2019-04-11T09:06:37.335Z,14.42
2019-04-11T09:09:33.362Z,13.98
2019-04-11T09:12:04.414Z,13.32
2019-04-11T09:15:07.098Z,15.70
2019-04-11T09:17:56.553Z,19.78
2019-04-11T09:20:37.980Z,24.06
2019-04-11T09:23:09.197Z,28.44
2019-04-11T09:26:07.961Z,29.66
2019-04-11T09:28:39.757Z,31.59
2019-04-11T09:31:30.253Z,33.13
2019-04-11T09:34:23.872Z,33.95
2019-04-11T09:37:18.484Z,34.50
2019-04-11T09:40:09.937Z,34.98
2019-04-11T09:43:01.685Z,34.95
2019-04-11T09:46:08.200Z,33.87
2019-04-11T09:48:58.022Z,34.23
2019-04-11T09:51:44.287Z,34.71
2019-04-11T09:54:30.383Z,35.72
2019-04-11T09:57:24.749Z,36.41
2019-04-11T10:00:18.594Z,36.01
2019-04-11T10:02:54.323Z,36.04
2019-04-11T10:05:26.508Z,35.83
2019-04-11T10:08:12.809Z,35.79
2019-04-11T10:11:17.722Z,36.08
2019-04-11T10:14:05.068Z,36.31
2019-04-11T10:16:52.520Z,36.14
2019-04-11T10:19:40.269Z,36.23
2019-04-11T10:22:20.634Z,36.37
2019-04-11T10:24:57.314Z,35.47
2019-04-11T10:27:57.268Z,35.00
2019-04-11T10:30:44.126Z,33.36
2019-04-11T10:33:33.143Z,33.67
2019-04-11T10:36:10.487Z,33.73
2019-04-11T10:38:38.397Z,34.25
2019-04-11T10:41:28.642Z,34.21
2019-04-11T10:43:57.175Z,34.45
2019-04-11T10:46:53.511Z,34.45
2019-04-11T10:49:39.620Z,34.22
2019-04-11T10:52:18.153Z,33.79
2019-04-11T10:55:03.087Z,34.69
2019-04-11T10:57:38.196Z,34.73
2019-04-11T11:00:12.915Z,34.42
2019-04-11T11:03:08.117Z,33.47
2019-04-11T11:05:38.132Z,32.79
2019-04-11T11:08:13.199Z,32.52
2019-04-11T11:10:41.876Z,31.68
2019-04-11T11:13:34.075Z,31.88
2019-04-11T11:16:02.310Z,30.63
2019-04-11T11:19:20.682Z,28.70
2019-04-11T11:21:27.575Z,26.70
2019-04-11T11:24:11.841Z,25.25
2019-04-11T11:26:41.049Z,27.52
2019-04-11T11:29:28.941Z,28.02
2019-04-11T11:32:07.134Z,30.25
2019-04-11T11:35:01.155Z,31.96
2019-04-11T11:37:37.501Z,32.33
2019-04-11T11:40:40.544Z,32.73
2019-04-11T11:43:16.940Z,33.16
2019-04-11T11:46:04.387Z,28.79
2019-04-11T11:48:39.766Z,28.02
2019-04-11T11:51:28.417Z,28.89
2019-04-11T11:54:07.157Z,30.64
2019-04-11T11:56:36.702Z,31.59
2019-04-11T11:59:11.324Z,32.40
2019-04-11T12:01:46.499Z,33.32
2019-04-11T12:04:35.303Z,33.58
2019-04-11T12:07:04.446Z,33.46
2019-04-11T12:09:51.334Z,33.51
2019-04-11T12:12:23.996Z,33.22
2019-04-11T12:15:14.207Z,33.57
2019-04-11T12:18:07.422Z,33.26
2019-04-11T12:20:44.825Z,33.83
2019-04-11T12:23:20.110Z,33.91
2019-04-11T12:25:47.850Z,34.22
2019-04-11T12:28:27.598Z,34.08
2019-04-11T12:31:01.392Z,33.94
2019-04-11T12:34:06.634Z,33.76
2019-04-11T12:36:43.062Z,34.04
2019-04-11T12:39:44.528Z,34.59
2019-04-11T12:42:20.831Z,33.51
2019-04-11T12:45:06.697Z,33.12
2019-04-11T12:47:39.865Z,32.50
2019-04-11T12:50:23.734Z,32.25
2019-04-11T12:53:11.138Z,30.93
2019-04-11T12:56:04.634Z,31.16
2019-04-11T12:58:35.964Z,31.88
2019-04-11T13:01:21.657Z,32.63
2019-04-11T13:04:20.540Z,33.17
2019-04-11T13:07:06.251Z,33.34
2019-04-11T13:09:53.582Z,33.38
2019-04-11T13:12:31.861Z,33.22
2019-04-11T13:15:14.598Z,33.11
2019-04-11T13:17:46.798Z,32.91
2019-04-11T13:20:32.798Z,33.08
2019-04-11T13:23:06.868Z,32.96
2019-04-11T13:26:02.853Z,33.08
2019-04-11T13:28:30.584Z,32.16
2019-04-11T13:31:16.068Z,31.84
2019-04-11T13:33:44.201Z,31.00
2019-04-11T13:36:27.765Z,29.88
2019-04-11T13:38:55.545Z,30.00
2019-04-11T13:41:58.053Z,30.40
2019-04-11T13:44:29.695Z,30.32
2019-04-11T13:47:15.485Z,30.49
2019-04-11T13:49:51.432Z,30.87
2019-04-11T13:52:38.783Z,31.53
2019-04-11T13:55:26.977Z,32.00
2019-04-11T13:58:14.413Z,32.33
2019-04-11T14:00:55.242Z,32.35
2019-04-11T14:03:45.687Z,32.42
2019-04-11T14:06:41.346Z,32.34
2019-04-11T14:09:34.601Z,32.02
2019-04-11T14:12:06.108Z,31.53
2019-04-11T14:14:56.583Z,30.77
2019-04-11T14:17:42.474Z,31.46
2019-04-11T14:20:30.560Z,32.76
2019-04-11T14:23:23.966Z,33.85
2019-04-11T14:26:03.630Z,34.22
2019-04-11T14:28:40.869Z,34.37
2019-04-11T14:31:40.704Z,34.63
2019-04-11T14:34:34.217Z,35.01
2019-04-11T14:37:12.202Z,33.88
2019-04-11T14:39:42.635Z,33.85
2019-04-11T14:42:35.412Z,34.25
2019-04-11T14:45:06.399Z,34.34
2019-04-11T14:47:56.640Z,34.03
2019-04-11T14:50:40.377Z,33.89
2019-04-11T14:53:17.884Z,33.78
2019-04-11T14:55:46.726Z,33.36
2019-04-11T14:58:45.118Z,33.92
2019-04-11T15:01:14.694Z,33.52
2019-04-11T15:04:00.473Z,33.52
2019-04-11T15:06:32.170Z,33.97
2019-04-11T15:09:25.450Z,35.01
2019-04-11T15:11:56.215Z,34.89
2019-04-11T15:14:52.248Z,34.76
2019-04-11T15:17:31.395Z,34.95
2019-04-11T15:20:13.805Z,35.23
2019-04-11T15:22:46.914Z,35.34
2019-04-11T15:25:22.043Z,35.15
2019-04-11T15:28:02.654Z,35.25
2019-04-11T15:30:31.443Z,35.52
2019-04-11T15:33:25.985Z,35.72
2019-04-11T15:35:57.615Z,35.97
2019-04-11T15:38:41.974Z,36.01
2019-04-11T15:41:09.785Z,35.73
2019-04-11T15:43:55.621Z,35.21
2019-04-11T15:46:30.600Z,34.75
2019-04-11T15:49:21.063Z,34.69
2019-04-11T15:51:50.763Z,34.54
2019-04-11T15:54:41.239Z,35.09
2019-04-11T15:57:34.705Z,35.95
2019-04-11T16:00:27.289Z,36.32
2019-04-11T16:02:57.968Z,36.26
2019-04-11T16:05:45.330Z,35.62
2019-04-11T16:08:17.202Z,36.13
2019-04-11T16:11:03.065Z,36.31
2019-04-11T16:13:41.259Z,35.92
2019-04-11T16:16:11.973Z,35.15
2019-04-11T16:18:56.978Z,35.27
2019-04-11T16:21:33.584Z,35.61
2019-04-11T16:24:09.735Z,35.82
2019-04-11T16:26:48.239Z,36.12
2019-04-11T16:29:24.051Z,36.22
2019-04-11T16:31:52.754Z,35.68
2019-04-11T16:34:31.828Z,35.72
2019-04-11T16:37:02.369Z,35.58
2019-04-11T16:39:52.170Z,35.79
2019-04-11T16:42:39.019Z,35.81
2019-04-11T16:45:30.020Z,35.72
2019-04-11T16:48:03.748Z,35.59
2019-04-11T16:50:31.856Z,35.20
2019-04-11T16:52:59.608Z,35.14
2019-04-11T16:55:27.702Z,34.90
2019-04-11T16:57:55.471Z,35.26
2019-04-11T17:00:23.342Z,35.61
2019-04-11T17:02:54.688Z,35.53
2019-04-11T17:05:20.816Z,35.24
2019-04-11T17:08:06.396Z,35.49
2019-04-11T17:10:52.385Z,35.90
2019-04-11T17:13:20.263Z,35.58
2019-04-11T17:15:48.069Z,35.75
2019-04-11T17:18:15.857Z,36.32
2019-04-11T17:20:43.595Z,36.97
2019-04-11T17:23:11.414Z,37.39
2019-04-11T17:25:39.179Z,37.83
2019-04-11T17:28:08.987Z,38.32
2019-04-11T17:30:36.562Z,38.54
2019-04-11T17:33:04.352Z,39.13
2019-04-11T17:35:32.302Z,39.36
2019-04-11T17:38:01.013Z,39.71
2019-04-11T17:40:29.816Z,39.74
2019-04-11T17:42:57.908Z,39.81
2019-04-11T17:45:25.689Z,39.66
2019-04-11T17:47:54.760Z,39.74
2019-04-11T17:50:23.117Z,40.20
2019-04-11T17:52:54.498Z,40.71
2019-04-11T17:55:23.623Z,40.44
2019-04-11T17:57:50.275Z,40.29
2019-04-11T18:00:24.408Z,40.49
2019-04-11T18:02:52.235Z,40.72
2019-04-11T18:05:20.140Z,41.02
2019-04-11T18:07:49.946Z,41.43
2019-04-11T18:10:17.598Z,41.48
2019-04-11T18:12:45.374Z,41.79
2019-04-11T18:15:13.257Z,41.50
2019-04-11T18:17:41.024Z,41.28
2019-04-11T18:20:09.058Z,41.37
2019-04-11T18:22:36.856Z,41.87
2019-04-11T18:25:04.872Z,42.21
2019-04-11T18:27:32.684Z,42.43
2019-04-11T18:30:00.457Z,41.93
2019-04-11T18:32:28.334Z,42.41
2019-04-11T18:34:56.086Z,42.50
2019-04-11T18:37:23.851Z,42.45
2019-04-11T18:39:51.624Z,42.87
2019-04-11T18:42:19.458Z,42.88
2019-04-11T18:44:47.173Z,43.51
2019-04-11T18:47:14.965Z,43.80
2019-04-11T18:49:42.753Z,43.46
2019-04-11T18:52:19.216Z,43.72
2019-04-11T18:54:40.264Z,43.24
2019-04-11T18:57:08.068Z,42.88
2019-04-11T18:59:35.807Z,43.25
2019-04-11T19:02:03.822Z,43.22
2019-04-11T19:04:32.854Z,43.43
2019-04-11T19:07:00.839Z,43.46
2019-04-11T19:09:28.895Z,43.66
2019-04-11T19:11:56.695Z,44.20
2019-04-11T19:14:24.998Z,44.37
2019-04-11T19:16:52.906Z,44.23
2019-04-11T19:19:20.673Z,44.34
2019-04-11T19:21:50.765Z,43.70
2019-04-11T19:24:18.095Z,43.78
2019-04-11T19:26:46.273Z,43.37
2019-04-11T19:29:14.862Z,43.59
2019-04-11T19:31:43.790Z,43.45
2019-04-11T19:34:11.598Z,43.02
2019-04-11T19:36:39.889Z,43.07
2019-04-11T19:39:13.544Z,43.28
2019-04-11T19:41:39.184Z,43.17
2019-04-11T19:44:06.965Z,43.05
2019-04-11T19:46:34.777Z,42.87
2019-04-11T19:49:02.576Z,42.98
2019-04-11T19:51:30.378Z,43.50
2019-04-11T19:53:58.182Z,43.24
2019-04-11T19:56:31.422Z,43.49
2019-04-11T19:59:01.164Z,43.77
2019-04-11T20:01:28.911Z,43.39
2019-04-11T20:03:56.703Z,43.07
2019-04-11T20:06:28.503Z,43.12
2019-04-11T20:08:56.307Z,43.05
2019-04-11T20:11:29.400Z,42.35
2019-04-11T20:14:00.089Z,42.39
2019-04-11T20:16:27.457Z,42.23
2019-04-11T20:18:57.491Z,42.08
2019-04-11T20:21:24.985Z,42.25
2019-04-11T20:23:52.786Z,42.04
2019-04-11T20:26:21.196Z,41.54
2019-04-11T20:28:50.913Z,40.62
2019-04-11T20:31:19.098Z,40.25
2019-04-11T20:33:46.865Z,40.53
2019-04-11T20:36:14.638Z,40.56
2019-04-11T20:38:44.759Z,40.73
2019-04-11T20:41:12.087Z,41.50
2019-04-11T20:43:39.854Z,41.72
2019-04-11T20:46:07.720Z,41.84
2019-04-11T20:48:35.525Z,41.40
2019-04-11T20:51:03.400Z,41.01
2019-04-11T20:53:36.538Z,40.76
2019-04-11T20:56:01.967Z,40.66
2019-04-11T20:58:29.760Z,41.06
2019-04-11T21:00:57.534Z,41.20
2019-04-11T21:03:25.274Z,41.23
2019-04-11T21:05:53.032Z,41.37
2019-04-11T21:08:20.819Z,41.42
2019-04-11T21:10:49.764Z,41.08
2019-04-11T21:13:17.529Z,41.14
2019-04-11T21:15:45.239Z,41.18
2019-04-11T21:18:13.040Z,41.37
2019-04-11T21:20:40.781Z,41.64
2019-04-11T21:23:08.550Z,42.04
2019-04-11T21:25:36.277Z,42.09
2019-04-11T21:28:04.019Z,42.28
2019-04-11T21:30:31.763Z,42.79
2019-04-11T21:33:01.125Z,43.14
2019-04-11T21:35:30.969Z,42.86
2019-04-11T21:38:00.324Z,42.82
2019-04-11T21:40:28.505Z,42.97
2019-04-11T21:42:56.312Z,42.88
2019-04-11T21:45:24.068Z,42.58
2019-04-11T21:47:51.835Z,42.72
2019-04-11T21:50:19.569Z,42.63
2019-04-11T21:52:47.349Z,42.35
2019-04-11T21:55:16.069Z,41.93
2019-04-11T21:57:48.586Z,42.10
2019-04-11T22:00:24.187Z,41.98
2019-04-11T22:02:54.379Z,42.04
2019-04-11T22:05:21.940Z,42.06
2019-04-11T22:07:49.669Z,42.52
2019-04-11T22:10:17.430Z,42.68
2019-04-11T22:12:45.183Z,42.86
2019-04-11T22:15:13.037Z,42.91
2019-04-11T22:17:42.951Z,42.97
2019-04-11T22:20:10.586Z,43.10
2019-04-11T22:22:38.321Z,42.94
2019-04-11T22:25:06.361Z,43.21
2019-04-11T22:27:34.136Z,43.75
2019-04-11T22:30:02.005Z,44.31
2019-04-11T22:32:29.735Z,44.52
2019-04-11T22:34:59.204Z,45.04
2019-04-11T22:37:27.749Z,45.67
2019-04-11T22:39:56.821Z,46.48
2019-04-11T22:42:24.654Z,46.64
2019-04-11T22:44:52.411Z,46.91
2019-04-11T22:47:20.146Z,47.29
2019-04-11T22:49:47.894Z,47.51
2019-04-11T22:52:15.930Z,47.84
2019-04-11T22:54:43.721Z,47.89
2019-04-11T22:57:12.174Z,48.02
2019-04-11T22:59:44.035Z,48.55
2019-04-11T23:02:32.729Z,48.61
2019-04-11T23:05:00.533Z,48.93
2019-04-11T23:07:28.295Z,48.99
2019-04-11T23:09:56.012Z,49.13
2019-04-11T23:12:23.769Z,49.80
2019-04-11T23:14:51.453Z,50.15
2019-04-11T23:17:19.187Z,50.15
2019-04-11T23:19:46.912Z,50.40
2019-04-11T23:22:14.624Z,50.55
2019-04-11T23:24:42.343Z,50.77
2019-04-11T23:27:10.042Z,50.84
2019-04-11T23:29:37.774Z,50.85
2019-04-11T23:32:05.577Z,50.90
2019-04-11T23:34:33.292Z,51.13
2019-04-11T23:37:00.982Z,51.12
2019-04-11T23:39:28.704Z,51.35
2019-04-11T23:41:56.414Z,51.79
2019-04-11T23:44:24.152Z,52.07
2019-04-11T23:46:52.636Z,52.13
2019-04-11T23:49:20.484Z,52.28
2019-04-11T23:51:48.214Z,52.59
2019-04-11T23:54:22.922Z,52.93
2019-04-11T23:56:45.594Z,52.83
2019-04-11T23:59:13.326Z,52.86
